Time;durP1;ratioP1;P1;durP2;ratioP2;P2;SDS_P1;SDS_P2;PMS_P1;PMS_P2;Temp;Humidity;BMP_temperature;BMP_pressure;BME280_temperature;BME280_humidity;BME280_pressure;Samples;Min_cycle;Max_cycle;Signal;HPM_P1;HPM_P2
2023/08/24 00:01:21;;;;;;;16.58;15.98;;;;;;;-141.02;99.86;41216.06;5093876;28;20244;-64
2023/08/24 00:03:48;;;;;;;16.85;16.15;;;;;;;-141.02;100.00;41170.00;5093244;28;20664;-65
2023/08/24 00:06:16;;;;;;;16.95;16.25;;;;;;;-141.02;99.36;41185.34;5093213;28;20194;-64
2023/08/24 00:12:45;;;;;;;16.75;16.05;;;;;;;-141.02;98.49;41158.50;5093181;28;20208;-65
2023/08/24 00:15:12;;;;;;;16.67;15.98;;;;;;;-141.02;98.49;41250.59;5093092;28;20186;-65
2023/08/24 00:17:39;;;;;;;16.90;16.20;;;;;;;-141.02;98.01;41173.84;5093344;28;20198;-65
2023/08/24 00:20:10;;;;;;;16.92;16.23;;;;;;;-141.02;97.12;41208.38;5093209;28;20193;-57
2023/08/24 00:22:38;;;;;;;16.83;16.13;;;;;;;-141.02;96.48;41216.06;5093209;28;20181;-56
2023/08/24 00:25:07;;;;;;;17.70;17.00;;;;;;;-141.02;96.22;41066.41;5093117;28;20198;-57
2023/08/24 00:27:34;;;;;;;18.05;17.25;;;;;;;-141.02;94.58;41217.97;5093262;28;20277;-60
2023/08/24 00:30:04;;;;;;;18.30;17.50;;;;;;;-141.02;92.92;41219.91;5092718;28;20194;-61
2023/08/24 00:32:34;;;;;;;17.90;17.10;;;;;;;-141.02;93.74;41250.59;5092987;28;20213;-61
2023/08/24 00:35:22;;;;;;;17.75;17.05;;;;;;;-141.02;93.88;41248.69;5093224;28;20189;-65
2023/08/24 00:37:54;;;;;;;18.02;17.23;;;;;;;-141.02;93.12;41262.09;5088660;28;20281;-61
2023/08/24 00:44:12;;;;;;;16.98;16.27;;;;;;;-141.02;97.97;41227.56;5050861;28;20199;-61
2023/08/24 00:46:41;;;;;;;16.90;16.20;;;;;;;-141.02;98.99;41200.72;5050367;28;20199;-60
2023/08/24 00:52:32;;;;;;;16.77;16.13;;;;;;;-141.02;98.42;41217.97;5050209;28;20264;-58
2023/08/24 00:55:00;;;;;;;16.10;15.50;;;;;;;-141.02;99.32;41183.44;5050307;28;20199;-61
2023/08/24 00:57:31;;;;;;;17.00;16.30;;;;;;;-141.02;98.38;41189.19;5041254;28;20247;-63
2023/08/24 01:00:47;;;;;;;17.13;16.42;;;;;;;-141.02;97.33;41170.00;5047897;28;20199;-59
2023/08/24 01:03:49;;;;;;;17.17;16.48;;;;;;;-141.02;97.57;41193.03;4971284;28;20290;-62
2023/08/24 01:06:16;;;;;;;16.85;16.15;;;;;;;-141.02;96.50;41208.38;4971307;28;20739;-60
2023/08/24 01:08:43;;;;;;;16.90;16.23;;;;;;;-141.02;95.82;41185.34;4971265;28;20252;-58
2023/08/24 01:14:42;;;;;;;17.23;16.52;;;;;;;-141.02;96.98;41193.03;4971400;28;20227;-58
2023/08/24 01:17:12;;;;;;;17.20;16.50;;;;;;;-141.02;96.28;41219.91;4971441;28;20189;-61
2023/08/24 01:19:43;;;;;;;16.92;16.23;;;;;;;-141.02;97.19;41219.91;5000082;28;20200;-60
2023/08/24 01:22:25;;;;;;;16.75;16.10;;;;;;;-141.02;98.12;41170.00;5029913;28;20198;-63
2023/08/24 01:28:16;;;;;;;16.67;16.08;;;;;;;-141.02;99.16;41183.44;5030202;28;20286;-60
2023/08/24 01:30:45;;;;;;;16.80;16.10;;;;;;;-141.02;99.59;41166.16;5029690;28;20669;-63
2023/08/24 01:33:13;;;;;;;15.85;15.25;;;;;;;-141.02;99.77;41158.50;5042827;28;20679;-59
2023/08/24 01:35:40;;;;;;;16.30;15.70;;;;;;;-141.02;99.59;41162.34;5092434;28;20194;-61
2023/08/24 01:38:12;;;;;;;15.88;15.27;;;;;;;-141.02;99.19;41166.16;5092904;28;20221;-60
2023/08/24 01:40:49;;;;;;;16.40;15.80;;;;;;;-141.02;99.54;41139.31;5092178;28;20189;-59
2023/08/24 01:43:20;;;;;;;16.58;15.98;;;;;;;-141.02;100.00;41154.66;5091924;28;20197;-65
2023/08/24 01:45:48;;;;;;;16.75;16.15;;;;;;;-141.02;99.34;41150.81;5091855;28;20275;-60
2023/08/24 01:51:37;;;;;;;16.60;16.00;;;;;;;-141.02;98.84;41170.00;5091772;28;20757;-65
2023/08/24 01:54:04;;;;;;;17.17;16.48;;;;;;;-141.02;99.70;41133.56;5091976;28;20190;-64
2023/08/24 01:56:31;;;;;;;16.90;16.30;;;;;;;-141.02;100.00;41123.97;5091743;28;20658;-64
2023/08/24 01:58:59;;;;;;;16.58;15.98;;;;;;;-141.02;100.00;41112.44;5091603;28;20609;-65
2023/08/24 02:01:27;;;;;;;16.45;15.85;;;;;;;-141.02;100.00;41100.94;5092243;28;20621;-65
2023/08/24 02:03:54;;;;;;;16.55;15.95;;;;;;;-141.02;100.00;41079.81;5091948;28;20228;-64
2023/08/24 02:06:21;;;;;;;16.08;15.48;;;;;;;-141.02;100.00;40962.78;5092132;28;20204;-63
2023/08/24 02:08:48;;;;;;;15.73;15.23;;;;;;;-141.02;100.00;40935.91;5091570;28;20236;-65
2023/08/24 02:11:15;;;;;;;14.88;14.38;;;;;;;-141.02;100.00;40870.69;5091485;28;20222;-67
2023/08/24 02:20:31;;;;;;;13.40;13.00;;;;;;;-141.02;100.00;40439.03;5091835;28;20180;-67
2023/08/24 02:26:21;;;;;;;12.57;12.18;;;;;;;-141.02;100.00;40160.88;5095188;28;20197;-65
2023/08/24 02:29:22;;;;;;;13.60;13.20;;;;;;;-141.02;100.00;40080.31;5095411;28;20194;-65
2023/08/24 02:35:11;;;;;;;13.30;12.90;;;;;;;-141.02;100.00;39978.66;5095324;28;20201;-66
2023/08/24 02:38:00;;;;;;;12.15;11.75;;;;;;;-141.02;100.00;39932.59;5095809;28;20285;-61
2023/08/24 02:43:21;;;;;;;12.30;11.90;;;;;;;-141.02;100.00;39813.69;5087944;28;20202;-62
2023/08/24 02:45:48;;;;;;;11.68;11.38;;;;;;;-141.02;100.00;39721.63;5094778;28;20193;-62
2023/08/24 02:48:15;;;;;;;11.73;11.43;;;;;;;-141.02;100.00;39666.00;5094696;28;20194;-65
2023/08/24 02:50:47;;;;;;;11.68;11.38;;;;;;;-141.02;100.00;39627.66;5094934;28;20280;-64
2023/08/24 02:53:15;;;;;;;10.98;10.68;;;;;;;-141.02;100.00;39604.63;5094566;28;20214;-61
2023/08/24 02:55:42;;;;;;;11.15;10.85;;;;;;;-141.02;100.00;39585.44;5094761;28;20294;-62
2023/08/24 02:58:09;;;;;;;11.27;10.98;;;;;;;-141.02;100.00;39556.69;5094432;28;20232;-66
2023/08/24 03:00:39;;;;;;;10.80;10.50;;;;;;;-141.02;100.00;39518.31;5095070;28;20721;-64
2023/08/24 03:03:06;;;;;;;10.82;10.52;;;;;;;-141.02;100.00;39483.81;5094767;28;20280;-61
2023/08/24 03:05:33;;;;;;;11.00;10.70;;;;;;;-141.02;100.00;39458.88;5094637;28;20228;-62
2023/08/24 03:11:23;;;;;;;10.60;10.30;;;;;;;-141.02;100.00;39380.25;5094349;28;20239;-62
2023/08/24 03:14:02;;;;;;;10.48;10.18;;;;;;;-141.02;100.00;39363.00;5094524;28;20200;-65
2023/08/24 03:16:28;;;;;;;10.43;10.13;;;;;;;-141.02;100.00;39326.56;5094229;28;20201;-64
2023/08/24 03:18:55;;;;;;;10.30;10.00;;;;;;;-141.02;100.00;38319.88;5094118;28;20640;-67
2023/08/24 03:21:22;;;;;;;10.23;9.93;;;;;;;-141.02;100.00;39282.44;5094462;28;20229;-62
2023/08/24 03:23:49;;;;;;;10.68;10.38;;;;;;;-141.02;100.00;39269.00;5094298;28;20219;-62
2023/08/24 03:26:16;;;;;;;10.40;10.10;;;;;;;-141.02;100.00;39251.75;5094310;28;20233;-65
2023/08/24 03:28:45;;;;;;;10.40;10.10;;;;;;;-141.02;100.00;39246.00;5093913;28;20198;-65
2023/08/24 03:34:33;;;;;;;10.50;10.20;;;;;;;-141.02;100.00;39531.75;5093013;28;20201;-63
2023/08/24 03:37:00;;;;;;;10.38;10.07;;;;;;;-141.02;100.00;39654.50;5094114;28;20244;-61
2023/08/24 03:39:27;;;;;;;10.20;9.90;;;;;;;-141.02;100.00;39754.22;5093743;28;20259;-61
2023/08/24 03:41:54;;;;;;;10.70;10.40;;;;;;;-141.02;100.00;39777.25;5093628;28;20247;-65
2023/08/24 03:44:23;;;;;;;9.63;9.32;;;;;;;-141.02;100.00;39781.09;5093916;28;20251;-62
2023/08/24 03:46:50;;;;;;;10.30;10.00;;;;;;;-141.02;100.00;39890.41;5093910;28;20281;-64
2023/08/24 03:49:17;;;;;;;9.95;9.65;;;;;;;-141.02;100.00;40020.84;5093546;28;20680;-62
2023/08/24 03:51:44;;;;;;;10.25;9.95;;;;;;;-141.02;100.00;40076.47;5093885;28;20255;-63
2023/08/24 03:54:11;;;;;;;10.00;9.70;;;;;;;-141.02;100.00;40076.47;5093789;28;20717;-63
2023/08/24 03:56:38;;;;;;;10.15;9.85;;;;;;;-141.02;100.00;40145.53;5093393;28;20206;-61
2023/08/24 03:59:05;;;;;;;10.00;9.70;;;;;;;-141.02;100.00;40164.72;5093347;28;20267;-63
2023/08/24 04:01:33;;;;;;;10.68;10.38;;;;;;;-141.02;100.00;40191.56;5093615;28;20193;-65
2023/08/24 04:04:00;;;;;;;10.40;10.10;;;;;;;-141.02;100.00;40245.28;5093213;28;20204;-64
2023/08/24 04:06:27;;;;;;;10.50;10.20;;;;;;;-141.02;100.00;40249.13;5093407;28;20650;-63
2023/08/24 04:08:54;;;;;;;10.00;9.70;;;;;;;-141.02;100.00;40293.22;5093450;28;20198;-64
2023/08/24 04:11:21;;;;;;;9.68;9.38;;;;;;;-141.02;100.00;40352.69;5092989;28;20226;-60
2023/08/24 04:13:48;;;;;;;9.70;9.40;;;;;;;-141.02;100.00;40402.56;5093696;28;20256;-64
2023/08/24 04:16:15;;;;;;;9.40;9.20;;;;;;;-141.02;100.00;40473.56;5093279;28;20285;-61
2023/08/24 04:18:43;;;;;;;9.00;8.80;;;;;;;-141.02;100.00;40517.69;5093253;28;20281;-64
2023/08/24 04:21:10;;;;;;;9.60;9.30;;;;;;;-141.02;100.00;40577.16;5093221;28;20281;-62
2023/08/24 04:23:37;;;;;;;9.70;9.40;;;;;;;-141.02;100.00;40598.25;5093373;28;20273;-62
2023/08/24 04:26:06;;;;;;;9.93;9.63;;;;;;;-141.02;100.00;40663.47;5092789;28;20684;-62
2023/08/24 04:28:33;;;;;;;10.35;10.05;;;;;;;-141.02;100.00;40824.63;5093146;28;20572;-67
2023/08/24 04:31:00;;;;;;;10.38;10.07;;;;;;;-141.02;100.00;41166.16;5093111;28;20272;-61
2023/08/24 04:33:27;;;;;;;10.02;9.73;;;;;;;-141.02;100.00;40962.78;5092978;28;20229;-64
2023/08/24 04:35:55;;;;;;;10.88;10.57;;;;;;;-141.02;100.00;41043.38;5092616;28;20198;-66
2023/08/24 04:38:23;;;;;;;11.52;11.23;;;;;;;-141.02;100.00;41016.50;5092945;28;20189;-67
2023/08/24 04:40:51;;;;;;;11.88;11.57;;;;;;;-141.02;100.00;40826.56;5092935;28;20659;-66
2023/08/24 04:43:18;;;;;;;12.20;11.80;;;;;;;-141.02;100.00;40884.13;5092872;28;20194;-64
2023/08/24 04:45:48;;;;;;;12.20;11.80;;;;;;;-141.02;100.00;40855.34;5092664;28;20615;-67
2023/08/24 04:48:15;;;;;;;12.30;11.90;;;;;;;-141.02;100.00;40989.66;5092484;28;20206;-66
2023/08/24 04:50:44;;;;;;;12.77;12.38;;;;;;;-141.02;100.00;41166.16;5092427;28;20197;-66
2023/08/24 04:53:14;;;;;;;12.77;12.38;;;;;;;-141.02;100.00;41087.50;5092348;28;20235;-66
2023/08/24 04:55:41;;;;;;;12.00;11.70;;;;;;;-141.02;100.00;41219.91;5092359;28;20251;-67
2023/08/24 04:58:08;;;;;;;12.35;11.95;;;;;;;-141.02;100.00;41619.03;5092100;28;20313;-67
2023/08/24 05:00:35;;;;;;;12.40;12.00;;;;;;;-141.02;100.00;41288.97;5092620;28;20280;-67
2023/08/24 05:03:02;;;;;;;12.65;12.25;;;;;;;-141.02;100.00;41137.38;5092621;28;20194;-66
2023/08/24 05:05:30;;;;;;;12.90;12.50;;;;;;;-141.02;100.00;41060.63;5092427;28;20591;-65
2023/08/24 05:07:57;;;;;;;13.10;12.70;;;;;;;-141.02;100.00;41089.41;5092559;28;20259;-64
2023/08/24 05:10:26;;;;;;;13.23;12.82;;;;;;;-141.02;100.00;41085.59;5092486;28;20200;-64
2023/08/24 05:12:53;;;;;;;13.00;12.60;;;;;;;-141.02;100.00;41139.31;5092363;28;20267;-66
2023/08/24 05:15:20;;;;;;;13.15;12.75;;;;;;;-141.02;100.00;41223.72;5092158;28;20224;-66
2023/08/24 05:17:47;;;;;;;13.10;12.70;;;;;;;-141.02;100.00;41277.47;5092097;28;20727;-63
2023/08/24 05:20:14;;;;;;;12.90;12.50;;;;;;;-141.02;100.00;41350.38;5092395;28;20244;-67
2023/08/24 05:22:41;;;;;;;12.80;12.40;;;;;;;-141.02;100.00;41292.81;5091984;28;20280;-66
2023/08/24 05:25:08;;;;;;;13.00;12.60;;;;;;;-141.02;100.00;41323.50;5092318;28;20277;-66
2023/08/24 05:27:37;;;;;;;13.32;12.93;;;;;;;-141.02;100.00;41319.69;5092187;28;20233;-66
2023/08/24 05:30:05;;;;;;;14.10;13.70;;;;;;;-141.02;100.00;41185.34;5092035;28;20200;-65
2023/08/24 05:32:32;;;;;;;13.90;13.50;;;;;;;-141.02;100.00;41244.84;5091862;28;20229;-64
2023/08/24 05:34:59;;;;;;;14.70;14.20;;;;;;;-141.02;100.00;41120.13;5092500;28;20204;-65
2023/08/24 05:37:26;;;;;;;14.55;14.05;;;;;;;-141.02;100.00;41127.78;5091883;28;20281;-66
2023/08/24 05:39:53;;;;;;;13.52;13.13;;;;;;;-141.02;100.00;41246.75;5092182;28;20232;-66
2023/08/24 05:42:20;;;;;;;14.02;13.52;;;;;;;-141.02;100.00;41288.97;5092172;28;20276;-64
2023/08/24 05:44:49;;;;;;;14.20;13.70;;;;;;;-141.02;100.00;41381.09;5091825;28;20642;-66
2023/08/24 05:47:15;;;;;;;14.57;14.07;;;;;;;-141.02;100.00;41438.66;5091868;28;20744;-66
2023/08/24 05:49:42;;;;;;;16.00;15.40;;;;;;;-141.02;100.00;41442.50;5091785;28;20694;-66
2023/08/24 05:52:09;;;;;;;15.98;15.38;;;;;;;-141.02;100.00;41515.41;5091972;28;20236;-66
2023/08/24 05:54:37;;;;;;;16.02;15.43;;;;;;;-141.02;100.00;41580.66;5091983;28;20293;-66
2023/08/24 05:57:04;;;;;;;16.38;15.77;;;;;;;-141.02;100.00;41755.28;5092833;28;20232;-66
2023/08/24 05:59:31;;;;;;;16.00;15.40;;;;;;;-141.02;100.00;41839.72;5095538;28;20261;-66
2023/08/24 06:02:00;;;;;;;15.90;15.30;;;;;;;-141.02;100.00;42102.66;5095973;28;20277;-65
2023/08/24 06:04:27;;;;;;;16.27;15.68;;;;;;;-141.02;100.00;42083.47;5095801;28;20659;-66
2023/08/24 06:06:54;;;;;;;16.15;15.55;;;;;;;-141.02;100.00;42045.09;5095522;28;20565;-67
2023/08/24 06:09:21;;;;;;;16.85;16.15;;;;;;;-141.02;97.91;42102.66;5095788;28;20216;-66
2023/08/24 06:11:48;;;;;;;16.75;16.05;;;;;;;-141.02;97.93;42198.63;5095666;28;20202;-66
2023/08/24 06:14:15;;;;;;;17.38;16.67;;;;;;;-141.02;93.76;42133.38;5095617;28;20315;-66
2023/08/24 06:16:42;;;;;;;17.25;16.55;;;;;;;-141.02;93.00;42233.19;5095724;28;20204;-64
2023/08/24 06:19:10;;;;;;;17.63;16.92;;;;;;;-141.02;92.63;42252.38;5095597;28;20268;-66
2023/08/24 06:21:37;;;;;;;17.58;16.88;;;;;;;-141.02;92.78;42309.97;5095533;28;20198;-65
2023/08/24 06:24:05;;;;;;;17.42;16.73;;;;;;;-141.02;90.22;42306.13;5095546;28;20200;-67
2023/08/24 06:26:32;;;;;;;18.27;17.48;;;;;;;-141.02;91.60;42352.19;5095477;28;20255;-67
2023/08/24 06:28:59;;;;;;;18.38;17.58;;;;;;;-141.02;87.44;42309.97;5095151;28;20614;-66
2023/08/24 06:31:26;;;;;;;18.30;17.50;;;;;;;-141.02;86.43;42233.19;5095353;28;20200;-66
2023/08/24 06:33:53;;;;;;;17.08;16.38;;;;;;;-141.02;86.14;42279.25;5095252;28;20267;-67
2023/08/24 06:36:22;;;;;;;17.88;17.17;;;;;;;-141.02;85.04;42286.94;5094978;28;20209;-65
2023/08/24 06:38:49;;;;;;;17.80;17.10;;;;;;;-141.02;84.67;42263.91;5094904;28;20190;-65
2023/08/24 06:41:15;;;;;;;18.38;17.58;;;;;;;-141.02;80.98;42194.81;5095312;28;20198;-67
2023/08/24 06:43:42;;;;;;;18.35;17.63;;;;;;;-141.02;81.24;42181.38;5094851;28;20284;-66
2023/08/24 06:46:09;;;;;;;17.55;16.85;;;;;;;-141.02;80.14;42219.75;5095130;28;20193;-65
2023/08/24 06:48:37;;;;;;;18.20;17.50;;;;;;;-141.02;78.86;42237.03;5095496;28;20197;-66
2023/08/24 06:51:04;;;;;;;18.38;17.60;;;;;;;-141.02;80.63;42321.47;5094976;28;20201;-67
2023/08/24 06:53:33;;;;;;;18.13;17.40;;;;;;;-141.02;78.48;42317.66;5094926;28;20225;-67
2023/08/24 06:56:00;;;;;;;18.05;17.35;;;;;;;-141.02;78.59;42421.28;5094850;28;20649;-67
2023/08/24 06:58:27;;;;;;;18.13;17.33;;;;;;;-141.02;80.56;42551.81;5094601;28;20761;-67
2023/08/24 07:00:55;;;;;;;18.33;17.52;;;;;;;-141.02;81.20;42594.06;5094495;28;20229;-66
2023/08/24 07:03:22;;;;;;;18.48;17.67;;;;;;;-141.02;81.83;42571.03;5094472;28;20193;-66
2023/08/24 07:05:51;;;;;;;17.35;16.65;;;;;;;-141.02;78.49;42432.81;5094771;28;20570;-67
2023/08/24 07:08:17;;;;;;;17.40;16.70;;;;;;;-141.02;80.70;42486.56;5093500;28;20194;-64
2023/08/24 07:10:46;;;;;;;16.70;16.10;;;;;;;-141.02;79.09;42743.78;5094248;28;20682;-67
2023/08/24 07:13:13;;;;;;;17.20;16.50;;;;;;;-141.02;77.06;42747.63;5094215;28;20237;-67
2023/08/24 07:15:40;;;;;;;17.15;16.45;;;;;;;-141.02;76.46;42830.19;5094203;28;20704;-67
2023/08/24 07:18:08;;;;;;;17.42;16.73;;;;;;;-141.02;76.19;42841.69;5094547;28;20197;-67
2023/08/24 07:20:35;;;;;;;16.95;16.25;;;;;;;-141.02;77.55;42716.91;5094181;28;20194;-67
2023/08/24 07:23:03;;;;;;;17.33;16.63;;;;;;;-141.02;76.60;42874.34;5094571;28;20293;-67
2023/08/24 07:25:30;;;;;;;17.73;17.02;;;;;;;-141.02;74.56;42784.09;5094297;28;20197;-65
2023/08/24 07:27:59;;;;;;;16.33;15.73;;;;;;;-141.02;75.93;42858.97;5094357;28;20190;-65
2023/08/24 07:30:26;;;;;;;16.50;15.90;;;;;;;-141.02;76.29;42901.22;5094002;28;20706;-64
2023/08/24 07:32:54;;;;;;;17.20;16.50;;;;;;;-141.02;76.04;42954.97;5093884;28;20268;-57
2023/08/24 07:35:24;;;;;;;17.63;16.92;;;;;;;-141.02;75.69;42958.81;5094225;28;20276;-57
2023/08/24 07:37:51;;;;;;;17.38;16.67;;;;;;;-141.02;74.89;42983.75;5094152;28;20196;-65
2023/08/24 07:40:18;;;;;;;16.02;15.43;;;;;;;-141.02;75.12;43122.00;5094029;28;20216;-57
2023/08/24 07:42:46;;;;;;;17.58;16.88;;;;;;;-141.02;75.40;43104.72;5093681;28;20239;-65
2023/08/24 07:45:15;;;;;;;17.15;16.45;;;;;;;-141.02;74.32;43168.06;5093991;28;20190;-61
2023/08/24 07:47:42;;;;;;;17.08;16.38;;;;;;;-141.02;72.84;43166.16;5093666;28;20194;-61
2023/08/24 07:50:10;;;;;;;17.83;17.13;;;;;;;-141.02;71.03;43388.88;5094193;28;20346;-59
2023/08/24 07:52:37;;;;;;;17.25;16.55;;;;;;;-141.02;69.91;43552.09;5093693;28;20237;-65
2023/08/24 07:55:06;;;;;;;17.25;16.55;;;;;;;-141.02;67.94;43542.47;5093436;28;20281;-61
2023/08/24 07:57:33;;;;;;;17.17;16.48;;;;;;;-141.02;67.95;43504.06;5093321;28;20652;-62
2023/08/24 08:00:02;;;;;;;16.73;16.02;;;;;;;-141.02;67.52;43509.84;5093427;28;20225;-62
2023/08/24 08:02:32;;;;;;;16.95;16.35;;;;;;;-141.02;67.99;43657.69;5093634;28;20193;-64
2023/08/24 08:04:59;;;;;;;17.25;16.55;;;;;;;-141.02;67.49;43638.50;5093647;28;20650;-61
2023/08/24 08:07:27;;;;;;;17.20;16.50;;;;;;;-141.02;66.83;43657.69;5093250;28;20729;-58
2023/08/24 08:09:54;;;;;;;17.50;16.80;;;;;;;-141.02;65.68;43661.53;5093506;28;20233;-58
2023/08/24 08:12:21;;;;;;;17.75;17.05;;;;;;;-141.02;64.87;43657.69;5093065;28;20281;-60
2023/08/24 08:14:48;;;;;;;17.80;17.10;;;;;;;-141.02;64.07;43770.97;5093307;28;20261;-60
2023/08/24 08:17:15;;;;;;;17.88;17.08;;;;;;;-141.02;63.17;43719.13;5093358;28;20224;-63
2023/08/24 08:19:43;;;;;;;17.25;16.55;;;;;;;-141.02;62.75;43713.38;5092930;28;20237;-59
2023/08/24 08:22:10;;;;;;;17.40;16.70;;;;;;;-141.02;62.91;43774.81;5092912;28;20194;-61
2023/08/24 08:24:37;;;;;;;18.20;17.40;;;;;;;-141.02;62.73;43757.53;5092880;28;20553;-60
2023/08/24 08:27:04;;;;;;;18.15;17.35;;;;;;;-141.02;62.06;43792.09;5093177;28;20194;-63
2023/08/24 08:29:31;;;;;;;17.98;17.17;;;;;;;-141.02;62.04;43859.31;5093119;28;20289;-61
2023/08/24 08:31:58;;;;;;;17.75;16.95;;;;;;;-141.02;61.59;43824.75;5092810;28;20675;-57
2023/08/24 08:34:25;;;;;;;17.98;17.17;;;;;;;-141.02;61.14;43788.28;5092941;28;20225;-60
2023/08/24 08:36:54;;;;;;;17.92;17.13;;;;;;;-141.02;60.33;44057.13;5093003;28;20228;-60
2023/08/24 08:39:21;;;;;;;17.77;16.98;;;;;;;-141.02;59.26;43915.00;5092603;28;20197;-60
2023/08/24 08:41:48;;;;;;;17.80;17.00;;;;;;;-141.02;59.25;43949.56;5092540;28;20653;-64
2023/08/24 08:44:16;;;;;;;17.75;16.95;;;;;;;-141.02;58.57;44014.88;5092923;28;20194;-64
2023/08/24 08:46:44;;;;;;;17.75;16.95;;;;;;;-141.02;59.07;44247.25;5092535;28;20605;-60
2023/08/24 08:49:15;;;;;;;17.77;16.98;;;;;;;-141.02;58.54;43957.25;5092599;28;20204;-60
2023/08/24 08:51:43;;;;;;;17.00;16.30;;;;;;;-141.02;57.50;44183.88;5092790;28;20589;-59
2023/08/24 08:54:12;;;;;;;17.60;16.80;;;;;;;-141.02;57.26;44206.91;5092383;28;20703;-61
2023/08/24 08:56:39;;;;;;;18.90;18.00;;;;;;;-141.02;55.96;44291.41;5092359;28;20194;-64
2023/08/24 08:59:09;;;;;;;17.75;16.95;;;;;;;-141.02;55.78;44245.31;5092108;28;20631;-58
2023/08/24 09:01:38;;;;;;;17.63;16.83;;;;;;;-141.02;55.02;44441.22;5092589;28;20225;-65
2023/08/24 09:04:07;;;;;;;17.45;16.65;;;;;;;-141.02;54.40;44558.38;5092541;28;20272;-62
2023/08/24 09:06:35;;;;;;;17.80;16.90;;;;;;;-141.02;54.98;44199.22;5092257;28;20290;-61
2023/08/24 09:09:02;;;;;;;17.83;16.92;;;;;;;-141.02;54.76;44383.59;5092232;28;20751;-61
2023/08/24 09:11:31;;;;;;;17.10;16.30;;;;;;;-141.02;53.63;44274.13;5092173;28;20190;-60
2023/08/24 09:13:58;;;;;;;16.75;15.95;;;;;;;-141.02;53.21;44737.03;5092038;28;20320;-60
2023/08/24 09:16:30;;;;;;;16.80;16.00;;;;;;;-141.02;51.99;44856.13;5092064;28;20198;-64
2023/08/24 09:18:57;;;;;;;16.80;16.00;;;;;;;-141.02;52.51;44687.09;5092430;28;20264;-63
2023/08/24 09:21:25;;;;;;;16.65;15.85;;;;;;;-141.02;52.12;44689.00;5092064;28;20229;-61
2023/08/24 09:23:55;;;;;;;16.20;15.50;;;;;;;-141.02;51.54;44867.66;5091991;28;20689;-61
2023/08/24 09:26:29;;;;;;;16.73;15.93;;;;;;;-141.02;50.15;44817.69;5092333;28;20240;-58
2023/08/24 09:28:57;;;;;;;16.42;15.63;;;;;;;-141.02;50.16;44546.88;5092604;28;20185;-65
2023/08/24 09:31:35;;;;;;;16.80;16.00;;;;;;;-141.02;50.50;44685.16;5092298;28;20225;-63
2023/08/24 09:34:03;;;;;;;16.60;15.80;;;;;;;-141.02;50.19;45023.25;5096150;28;20672;-61
2023/08/24 09:36:32;;;;;;;16.27;15.48;;;;;;;-141.02;50.52;45209.59;5096167;28;20285;-64
2023/08/24 09:38:59;;;;;;;16.45;15.65;;;;;;;-141.02;49.37;45280.66;5096116;28;20757;-60
2023/08/24 09:41:38;;;;;;;16.60;15.80;;;;;;;-141.02;49.08;45082.78;5096033;28;20315;-59
2023/08/24 09:44:07;;;;;;;16.52;15.73;;;;;;;-141.02;48.31;45171.16;5096359;28;20190;-64
2023/08/24 09:46:36;;;;;;;16.25;15.45;;;;;;;-141.02;48.18;45015.56;5096262;28;20274;-63
2023/08/24 09:49:05;;;;;;;16.63;15.82;;;;;;;-141.02;48.46;45102.00;5095890;28;20190;-61
2023/08/24 09:51:34;;;;;;;16.63;15.82;;;;;;;-141.02;47.72;45365.19;5095936;28;20201;-62
2023/08/24 09:54:06;;;;;;;16.60;15.80;;;;;;;-141.02;47.40;45993.47;5095692;28;20331;-62
2023/08/24 09:56:36;;;;;;;16.50;15.70;;;;;;;-141.02;46.83;45401.69;5096112;28;20193;-59
2023/08/24 09:59:13;;;;;;;16.65;15.85;;;;;;;-141.02;46.12;45687.97;5095679;28;20599;-61
2023/08/24 10:01:43;;;;;;;16.65;15.85;;;;;;;-141.02;46.21;45651.47;5095790;28;20196;-59
2023/08/24 10:04:11;;;;;;;16.23;15.52;;;;;;;-141.02;45.37;45799.41;5096145;28;20182;-62
2023/08/24 10:06:40;;;;;;;16.52;15.73;;;;;;;-141.02;46.35;45559.25;5095919;28;20246;-61
2023/08/24 10:09:09;;;;;;;16.75;15.95;;;;;;;-141.02;45.89;45015.56;5095557;28;20193;-63
2023/08/24 10:11:42;;;;;;;17.42;16.40;;;;;;;-141.02;49.86;43888.13;5095842;28;20243;-63
2023/08/24 10:14:17;;;;;;;16.58;15.77;;;;;;;-141.02;55.92;42782.19;5095353;28;20764;-62
2023/08/24 10:16:47;;;;;;;16.77;15.98;;;;;;;-141.02;60.53;42690.03;5095403;28;20190;-63
2023/08/24 10:19:15;;;;;;;18.80;17.80;;;;;;;-141.02;65.93;42667.00;5095623;28;20578;-59
2023/08/24 10:21:42;;;;;;;21.05;19.85;;;;;;;-141.02;79.21;42643.97;5095317;28;20204;-60
2023/08/24 10:24:09;;;;;;;23.90;22.50;;;;;;;-141.02;91.89;42619.00;5095183;28;20292;-63
2023/08/24 10:26:38;;;;;;;27.67;25.88;;;;;;;-141.02;100.00;42567.19;5095495;28;20231;-70
2023/08/24 10:29:07;;;;;;;28.40;26.60;;;;;;;-141.02;100.00;42565.25;5095444;28;20343;-60
2023/08/24 10:31:37;;;;;;;29.90;28.10;;;;;;;-141.02;100.00;42517.28;5095343;28;20256;-62
2023/08/24 10:34:07;;;;;;;31.88;29.77;;;;;;;-141.02;100.00;42475.03;5095275;28;20225;-65
2023/08/24 10:36:35;;;;;;;34.03;31.65;;;;;;;-141.02;100.00;42248.53;5095875;28;20203;-62
2023/08/24 10:39:06;;;;;;;33.60;31.30;;;;;;;-141.02;100.00;42190.97;5095351;28;20194;-67
2023/08/24 10:41:48;;;;;;;35.00;32.60;;;;;;;-141.02;100.00;42306.13;5094950;28;20189;-66
2023/08/24 10:44:23;;;;;;;30.27;28.35;;;;;;;-141.02;100.00;42951.13;5094623;28;20193;-67
2023/08/24 10:47:13;;;;;;;30.42;28.42;;;;;;;-141.02;100.00;43473.34;5095122;28;20197;-67
2023/08/24 10:49:41;;;;;;;33.08;30.77;;;;;;;-141.02;100.00;43379.28;5095048;28;20215;-65
2023/08/24 10:52:21;;;;;;;33.90;31.60;;;;;;;-141.02;100.00;42670.84;5095566;28;20697;-67
2023/08/24 10:54:49;;;;;;;34.40;32.00;;;;;;;-141.02;100.00;42536.47;5094818;28;20229;-68
2023/08/24 10:57:21;;;;;;;35.63;33.03;;;;;;;-141.02;100.00;43110.47;5094907;28;20193;-69
2023/08/24 11:00:05;;;;;;;34.88;32.38;;;;;;;-141.02;100.00;43843.97;5094394;28;20233;-69
2023/08/24 11:02:42;;;;;;;33.28;31.08;;;;;;;-141.02;100.00;45105.84;5094552;28;20663;-71
2023/08/24 11:05:21;;;;;;;31.80;29.80;;;;;;;-141.02;100.00;45747.53;5094421;28;20186;-72
2023/08/24 11:07:52;;;;;;;32.60;30.55;;;;;;;-141.02;100.00;45201.91;5094479;28;20664;-73
2023/08/24 11:10:20;;;;;;;30.55;28.65;;;;;;;-141.02;100.00;47573.38;5094314;28;20625;-65
2023/08/24 11:13:09;;;;;;;31.50;29.60;;;;;;;-141.02;100.00;45395.94;5094305;28;20281;-72
2023/08/24 11:15:40;;;;;;;29.10;27.40;;;;;;;-141.02;100.00;47859.81;5094556;28;20220;-77
2023/08/24 11:18:22;;;;;;;27.52;25.92;;;;;;;-141.02;100.00;44650.59;5094234;28;20664;-74
2023/08/24 11:20:51;;;;;;;24.08;22.77;;;;;;;-141.02;100.00;44464.28;5094526;28;20194;-78
2023/08/24 11:23:19;;;;;;;22.25;21.05;;;;;;;-141.02;100.00;44637.16;5094433;28;20233;-78
2023/08/24 11:25:46;;;;;;;23.08;21.88;;;;;;;-141.02;100.00;43488.72;5094359;28;20208;-78
2023/08/24 11:28:18;;;;;;;22.25;21.15;;;;;;;-141.02;100.00;43930.38;5094030;28;20193;-74
2023/08/24 11:30:45;;;;;;;22.40;21.30;;;;;;;-141.02;100.00;44003.34;5094040;28;20683;-77
2023/08/24 11:33:13;;;;;;;22.30;21.20;;;;;;;-141.02;100.00;43650.00;5094474;28;20266;-76
2023/08/24 11:35:44;;;;;;;21.77;20.75;;;;;;;-141.02;100.00;45052.06;5094078;28;20236;-80
2023/08/24 11:38:12;;;;;;;21.42;20.42;;;;;;;-141.02;100.00;44468.13;5094202;28;20536;-77
2023/08/24 11:40:39;;;;;;;21.38;20.38;;;;;;;-141.02;100.00;44994.44;5094048;28;20276;-78
2023/08/24 11:43:06;;;;;;;21.30;20.30;;;;;;;-141.02;100.00;45136.59;5093789;28;20289;-79
2023/08/24 11:45:34;;;;;;;20.88;19.88;;;;;;;-141.02;100.00;45753.31;5093997;28;20197;-83
2023/08/24 11:48:02;;;;;;;19.50;18.60;;;;;;;-141.02;100.00;44422.03;5093607;28;20660;-81
2023/08/24 11:50:29;;;;;;;19.90;19.10;;;;;;;-141.02;100.00;44842.66;5093884;28;20225;-83
2023/08/24 11:52:59;;;;;;;18.42;17.63;;;;;;;-141.02;86.76;44195.41;5094533;28;20252;-85